sensor_id;sensor_type;location;lat;lon;timestamp;P1;durP1;ratioP1;P2;durP2;ratioP2
4317;SDS011;2172;53.576;9.934;2023-11-19T00:00:14;13.73;;;10.37;;
4317;SDS011;2172;53.576;9.934;2023-11-19T00:02:43;11.70;;;9.40;;
4317;SDS011;2172;53.576;9.934;2023-11-19T00:05:14;14.90;;;10.20;;
4317;SDS011;2172;53.576;9.934;2023-11-19T00:07:41;10.50;;;9.40;;
4317;SDS011;2172;53.576;9.934;2023-11-19T00:10:09;12.20;;;9.03;;
4317;SDS011;2172;53.576;9.934;2023-11-19T00:12:37;11.33;;;8.37;;
4317;SDS011;2172;53.576;9.934;2023-11-19T00:15:06;12.10;;;9.17;;
4317;SDS011;2172;53.576;9.934;2023-11-19T00:17:36;9.40;;;7.00;;
4317;SDS011;2172;53.576;9.934;2023-11-19T00:20:06;9.63;;;8.13;;
4317;SDS011;2172;53.576;9.934;2023-11-19T00:22:36;10.97;;;8.80;;
4317;SDS011;2172;53.576;9.934;2023-11-19T00:25:04;9.53;;;7.17;;
4317;SDS011;2172;53.576;9.934;2023-11-19T00:27:32;9.83;;;6.97;;
4317;SDS011;2172;53.576;9.934;2023-11-19T00:29:59;7.30;;;5.90;;
4317;SDS011;2172;53.576;9.934;2023-11-19T00:32:27;9.07;;;7.77;;
4317;SDS011;2172;53.576;9.934;2023-11-19T00:34:54;9.57;;;6.50;;
4317;SDS011;2172;53.576;9.934;2023-11-19T00:37:22;9.57;;;6.43;;
4317;SDS011;2172;53.576;9.934;2023-11-19T00:39:51;9.10;;;6.80;;
4317;SDS011;2172;53.576;9.934;2023-11-19T00:42:18;8.77;;;6.60;;
4317;SDS011;2172;53.576;9.934;2023-11-19T00:44:46;8.57;;;7.10;;
4317;SDS011;2172;53.576;9.934;2023-11-19T00:47:13;8.17;;;6.20;;
4317;SDS011;2172;53.576;9.934;2023-11-19T00:49:41;9.37;;;7.43;;
4317;SDS011;2172;53.576;9.934;2023-11-19T00:52:09;8.17;;;7.00;;
4317;SDS011;2172;53.576;9.934;2023-11-19T00:54:36;12.27;;;7.87;;
4317;SDS011;2172;53.576;9.934;2023-11-19T00:57:05;8.20;;;6.70;;
4317;SDS011;2172;53.576;9.934;2023-11-19T00:59:33;8.30;;;7.40;;
4317;SDS011;2172;53.576;9.934;2023-11-19T01:02:00;8.90;;;6.53;;
4317;SDS011;2172;53.576;9.934;2023-11-19T01:04:29;8.43;;;6.30;;
4317;SDS011;2172;53.576;9.934;2023-11-19T01:07:01;7.03;;;5.93;;
4317;SDS011;2172;53.576;9.934;2023-11-19T01:09:30;7.40;;;5.27;;
4317;SDS011;2172;53.576;9.934;2023-11-19T01:12:00;9.23;;;5.63;;
4317;SDS011;2172;53.576;9.934;2023-11-19T01:14:29;6.70;;;5.00;;
4317;SDS011;2172;53.576;9.934;2023-11-19T01:16:56;6.00;;;5.10;;
4317;SDS011;2172;53.576;9.934;2023-11-19T01:19:24;6.23;;;5.03;;
4317;SDS011;2172;53.576;9.934;2023-11-19T01:21:53;4.67;;;4.00;;
4317;SDS011;2172;53.576;9.934;2023-11-19T01:24:21;5.10;;;4.60;;
4317;SDS011;2172;53.576;9.934;2023-11-19T01:26:48;6.17;;;4.30;;
4317;SDS011;2172;53.576;9.934;2023-11-19T01:29:17;5.00;;;4.60;;
4317;SDS011;2172;53.576;9.934;2023-11-19T01:31:46;4.53;;;3.67;;
4317;SDS011;2172;53.576;9.934;2023-11-19T01:34:14;4.60;;;3.67;;
4317;SDS011;2172;53.576;9.934;2023-11-19T01:36:42;4.00;;;3.60;;
4317;SDS011;2172;53.576;9.934;2023-11-19T01:39:11;5.70;;;4.37;;
4317;SDS011;2172;53.576;9.934;2023-11-19T01:41:41;6.23;;;4.47;;
4317;SDS011;2172;53.576;9.934;2023-11-19T01:44:08;4.73;;;3.80;;
4317;SDS011;2172;53.576;9.934;2023-11-19T01:46:37;5.17;;;4.63;;
4317;SDS011;2172;53.576;9.934;2023-11-19T01:49:08;5.80;;;4.50;;
4317;SDS011;2172;53.576;9.934;2023-11-19T01:51:37;5.40;;;4.73;;
4317;SDS011;2172;53.576;9.934;2023-11-19T01:54:05;8.83;;;6.00;;
4317;SDS011;2172;53.576;9.934;2023-11-19T01:56:33;5.27;;;3.67;;
4317;SDS011;2172;53.576;9.934;2023-11-19T01:59:02;4.90;;;3.13;;
4317;SDS011;2172;53.576;9.934;2023-11-19T02:01:30;5.50;;;3.73;;
4317;SDS011;2172;53.576;9.934;2023-11-19T02:03:59;4.70;;;4.10;;
4317;SDS011;2172;53.576;9.934;2023-11-19T02:06:30;5.20;;;3.80;;
4317;SDS011;2172;53.576;9.934;2023-11-19T02:08:59;3.90;;;3.07;;
4317;SDS011;2172;53.576;9.934;2023-11-19T02:11:32;2.93;;;2.63;;
4317;SDS011;2172;53.576;9.934;2023-11-19T02:14:00;3.97;;;3.27;;
4317;SDS011;2172;53.576;9.934;2023-11-19T02:16:28;4.40;;;3.53;;
4317;SDS011;2172;53.576;9.934;2023-11-19T02:18:56;3.20;;;2.77;;
4317;SDS011;2172;53.576;9.934;2023-11-19T02:21:24;3.70;;;3.40;;
4317;SDS011;2172;53.576;9.934;2023-11-19T02:23:52;4.80;;;3.57;;
4317;SDS011;2172;53.576;9.934;2023-11-19T02:26:22;5.80;;;3.53;;
4317;SDS011;2172;53.576;9.934;2023-11-19T02:28:55;4.00;;;3.27;;
4317;SDS011;2172;53.576;9.934;2023-11-19T02:31:22;4.80;;;3.53;;
4317;SDS011;2172;53.576;9.934;2023-11-19T02:33:50;3.87;;;3.57;;
4317;SDS011;2172;53.576;9.934;2023-11-19T02:36:17;5.33;;;3.97;;
4317;SDS011;2172;53.576;9.934;2023-11-19T02:39:04;3.20;;;2.90;;
4317;SDS011;2172;53.576;9.934;2023-11-19T02:41:35;3.23;;;2.83;;
4317;SDS011;2172;53.576;9.934;2023-11-19T02:44:06;4.37;;;3.10;;
4317;SDS011;2172;53.576;9.934;2023-11-19T02:46:34;3.40;;;2.97;;
4317;SDS011;2172;53.576;9.934;2023-11-19T02:49:01;3.70;;;2.83;;
4317;SDS011;2172;53.576;9.934;2023-11-19T02:51:29;3.90;;;3.60;;
4317;SDS011;2172;53.576;9.934;2023-11-19T02:53:56;5.13;;;4.30;;
4317;SDS011;2172;53.576;9.934;2023-11-19T02:56:24;3.00;;;2.70;;
4317;SDS011;2172;53.576;9.934;2023-11-19T02:58:52;3.83;;;3.27;;
4317;SDS011;2172;53.576;9.934;2023-11-19T03:01:24;3.40;;;3.10;;
4317;SDS011;2172;53.576;9.934;2023-11-19T03:03:55;7.37;;;5.53;;
4317;SDS011;2172;53.576;9.934;2023-11-19T03:06:23;5.50;;;4.17;;
4317;SDS011;2172;53.576;9.934;2023-11-19T03:08:51;5.20;;;4.33;;
4317;SDS011;2172;53.576;9.934;2023-11-19T03:11:18;4.53;;;3.83;;
4317;SDS011;2172;53.576;9.934;2023-11-19T03:13:46;7.50;;;4.60;;
4317;SDS011;2172;53.576;9.934;2023-11-19T03:16:14;5.40;;;4.73;;
4317;SDS011;2172;53.576;9.934;2023-11-19T03:18:43;4.93;;;4.43;;
4317;SDS011;2172;53.576;9.934;2023-11-19T03:21:11;5.60;;;4.63;;
4317;SDS011;2172;53.576;9.934;2023-11-19T03:23:39;6.73;;;4.50;;
4317;SDS011;2172;53.576;9.934;2023-11-19T03:26:06;5.20;;;4.10;;
4317;SDS011;2172;53.576;9.934;2023-11-19T03:28:34;4.70;;;4.30;;
4317;SDS011;2172;53.576;9.934;2023-11-19T03:31:04;4.17;;;3.77;;
4317;SDS011;2172;53.576;9.934;2023-11-19T03:33:34;4.63;;;4.17;;
4317;SDS011;2172;53.576;9.934;2023-11-19T03:36:04;6.30;;;4.93;;
4317;SDS011;2172;53.576;9.934;2023-11-19T03:38:32;4.50;;;4.10;;
4317;SDS011;2172;53.576;9.934;2023-11-19T03:41:09;5.43;;;4.90;;
4317;SDS011;2172;53.576;9.934;2023-11-19T03:43:38;3.97;;;3.57;;
4317;SDS011;2172;53.576;9.934;2023-11-19T03:46:15;4.73;;;4.37;;
4317;SDS011;2172;53.576;9.934;2023-11-19T03:48:43;4.87;;;4.07;;
4317;SDS011;2172;53.576;9.934;2023-11-19T03:51:14;4.83;;;4.30;;
4317;SDS011;2172;53.576;9.934;2023-11-19T03:53:42;5.10;;;4.57;;
4317;SDS011;2172;53.576;9.934;2023-11-19T03:56:09;5.37;;;4.20;;
4317;SDS011;2172;53.576;9.934;2023-11-19T03:58:38;5.43;;;4.93;;
4317;SDS011;2172;53.576;9.934;2023-11-19T04:01:06;6.80;;;5.70;;
4317;SDS011;2172;53.576;9.934;2023-11-19T04:03:38;5.80;;;5.23;;
4317;SDS011;2172;53.576;9.934;2023-11-19T04:06:06;5.20;;;4.70;;
4317;SDS011;2172;53.576;9.934;2023-11-19T04:08:34;7.23;;;5.30;;
4317;SDS011;2172;53.576;9.934;2023-11-19T04:11:02;6.27;;;5.17;;
4317;SDS011;2172;53.576;9.934;2023-11-19T04:13:29;7.13;;;6.43;;
4317;SDS011;2172;53.576;9.934;2023-11-19T04:15:57;6.53;;;5.87;;
4317;SDS011;2172;53.576;9.934;2023-11-19T04:18:24;8.23;;;7.10;;
4317;SDS011;2172;53.576;9.934;2023-11-19T04:20:52;7.03;;;6.27;;
4317;SDS011;2172;53.576;9.934;2023-11-19T04:23:20;8.07;;;6.70;;
4317;SDS011;2172;53.576;9.934;2023-11-19T04:25:49;7.00;;;6.30;;
4317;SDS011;2172;53.576;9.934;2023-11-19T04:28:17;9.33;;;6.80;;
4317;SDS011;2172;53.576;9.934;2023-11-19T04:30:44;9.10;;;7.27;;
4317;SDS011;2172;53.576;9.934;2023-11-19T04:33:12;10.53;;;7.53;;
4317;SDS011;2172;53.576;9.934;2023-11-19T04:35:40;13.27;;;8.00;;
4317;SDS011;2172;53.576;9.934;2023-11-19T04:38:07;8.27;;;7.13;;
4317;SDS011;2172;53.576;9.934;2023-11-19T04:40:35;10.57;;;7.53;;
4317;SDS011;2172;53.576;9.934;2023-11-19T04:43:04;11.40;;;8.20;;
4317;SDS011;2172;53.576;9.934;2023-11-19T04:45:32;10.17;;;8.50;;
4317;SDS011;2172;53.576;9.934;2023-11-19T04:48:00;10.80;;;8.47;;
4317;SDS011;2172;53.576;9.934;2023-11-19T04:50:27;12.23;;;9.73;;
4317;SDS011;2172;53.576;9.934;2023-11-19T04:52:55;11.10;;;9.33;;
4317;SDS011;2172;53.576;9.934;2023-11-19T04:55:23;13.40;;;9.53;;
4317;SDS011;2172;53.576;9.934;2023-11-19T04:57:53;14.83;;;9.47;;
4317;SDS011;2172;53.576;9.934;2023-11-19T05:00:22;15.17;;;10.57;;
4317;SDS011;2172;53.576;9.934;2023-11-19T05:02:50;14.87;;;11.27;;
4317;SDS011;2172;53.576;9.934;2023-11-19T05:05:18;13.93;;;10.57;;
4317;SDS011;2172;53.576;9.934;2023-11-19T05:07:46;18.30;;;11.40;;
4317;SDS011;2172;53.576;9.934;2023-11-19T05:10:13;18.00;;;12.53;;
4317;SDS011;2172;53.576;9.934;2023-11-19T05:12:41;20.87;;;13.70;;
4317;SDS011;2172;53.576;9.934;2023-11-19T05:15:09;28.10;;;16.50;;
4317;SDS011;2172;53.576;9.934;2023-11-19T05:17:38;25.27;;;14.00;;
4317;SDS011;2172;53.576;9.934;2023-11-19T05:20:06;26.30;;;16.87;;
4317;SDS011;2172;53.576;9.934;2023-11-19T05:22:38;22.40;;;14.77;;
4317;SDS011;2172;53.576;9.934;2023-11-19T05:25:06;33.77;;;18.20;;
4317;SDS011;2172;53.576;9.934;2023-11-19T05:27:35;39.30;;;21.37;;
4317;SDS011;2172;53.576;9.934;2023-11-19T05:30:03;35.53;;;19.87;;
4317;SDS011;2172;53.576;9.934;2023-11-19T05:32:32;39.07;;;20.73;;
4317;SDS011;2172;53.576;9.934;2023-11-19T05:35:01;39.97;;;21.60;;
4317;SDS011;2172;53.576;9.934;2023-11-19T05:37:29;46.07;;;24.10;;
4317;SDS011;2172;53.576;9.934;2023-11-19T05:39:56;45.23;;;24.07;;
4317;SDS011;2172;53.576;9.934;2023-11-19T05:42:25;43.53;;;25.00;;
4317;SDS011;2172;53.576;9.934;2023-11-19T05:44:52;46.33;;;24.77;;
4317;SDS011;2172;53.576;9.934;2023-11-19T05:47:20;48.53;;;25.20;;
4317;SDS011;2172;53.576;9.934;2023-11-19T05:49:47;50.63;;;26.10;;
4317;SDS011;2172;53.576;9.934;2023-11-19T05:52:20;47.07;;;25.90;;
4317;SDS011;2172;53.576;9.934;2023-11-19T05:54:48;47.77;;;26.40;;
4317;SDS011;2172;53.576;9.934;2023-11-19T05:57:17;58.10;;;28.03;;
4317;SDS011;2172;53.576;9.934;2023-11-19T05:59:48;53.33;;;26.53;;
4317;SDS011;2172;53.576;9.934;2023-11-19T06:02:15;46.63;;;25.80;;
4317;SDS011;2172;53.576;9.934;2023-11-19T06:04:43;46.63;;;26.10;;
4317;SDS011;2172;53.576;9.934;2023-11-19T06:07:13;46.43;;;25.67;;
4317;SDS011;2172;53.576;9.934;2023-11-19T06:09:42;68.77;;;28.23;;
4317;SDS011;2172;53.576;9.934;2023-11-19T06:12:09;56.60;;;25.90;;
4317;SDS011;2172;53.576;9.934;2023-11-19T06:14:37;51.53;;;26.70;;
4317;SDS011;2172;53.576;9.934;2023-11-19T06:17:05;53.20;;;27.47;;
4317;SDS011;2172;53.576;9.934;2023-11-19T06:19:33;54.07;;;26.10;;
4317;SDS011;2172;53.576;9.934;2023-11-19T06:22:01;48.10;;;25.60;;
4317;SDS011;2172;53.576;9.934;2023-11-19T06:24:28;43.17;;;24.97;;
4317;SDS011;2172;53.576;9.934;2023-11-19T06:26:57;53.70;;;25.90;;
4317;SDS011;2172;53.576;9.934;2023-11-19T06:29:25;48.80;;;23.87;;
4317;SDS011;2172;53.576;9.934;2023-11-19T06:31:52;48.23;;;24.37;;
4317;SDS011;2172;53.576;9.934;2023-11-19T06:34:20;47.60;;;24.00;;
4317;SDS011;2172;53.576;9.934;2023-11-19T06:36:47;56.83;;;25.80;;
4317;SDS011;2172;53.576;9.934;2023-11-19T06:39:14;43.80;;;22.40;;
4317;SDS011;2172;53.576;9.934;2023-11-19T06:41:44;47.23;;;21.30;;
4317;SDS011;2172;53.576;9.934;2023-11-19T06:44:13;39.63;;;20.20;;
4317;SDS011;2172;53.576;9.934;2023-11-19T06:46:41;49.97;;;27.10;;
4317;SDS011;2172;53.576;9.934;2023-11-19T06:49:08;36.03;;;19.17;;
4317;SDS011;2172;53.576;9.934;2023-11-19T06:51:40;43.27;;;20.03;;
4317;SDS011;2172;53.576;9.934;2023-11-19T06:54:09;40.10;;;21.40;;
4317;SDS011;2172;53.576;9.934;2023-11-19T06:56:37;42.17;;;18.70;;
4317;SDS011;2172;53.576;9.934;2023-11-19T06:59:04;49.60;;;17.73;;
4317;SDS011;2172;53.576;9.934;2023-11-19T07:01:35;34.80;;;18.27;;
4317;SDS011;2172;53.576;9.934;2023-11-19T07:04:03;33.70;;;16.70;;
4317;SDS011;2172;53.576;9.934;2023-11-19T07:06:34;35.83;;;15.70;;
4317;SDS011;2172;53.576;9.934;2023-11-19T07:09:02;36.33;;;16.63;;
4317;SDS011;2172;53.576;9.934;2023-11-19T07:11:35;38.20;;;14.83;;
4317;SDS011;2172;53.576;9.934;2023-11-19T07:14:03;38.47;;;14.00;;
4317;SDS011;2172;53.576;9.934;2023-11-19T07:16:31;36.93;;;13.17;;
4317;SDS011;2172;53.576;9.934;2023-11-19T07:19:00;37.70;;;13.50;;
4317;SDS011;2172;53.576;9.934;2023-11-19T07:21:28;26.97;;;10.90;;
4317;SDS011;2172;53.576;9.934;2023-11-19T07:23:55;27.00;;;10.60;;
4317;SDS011;2172;53.576;9.934;2023-11-19T07:26:23;26.93;;;10.97;;
4317;SDS011;2172;53.576;9.934;2023-11-19T07:28:50;21.53;;;11.07;;
4317;SDS011;2172;53.576;9.934;2023-11-19T07:31:18;22.20;;;9.77;;
4317;SDS011;2172;53.576;9.934;2023-11-19T07:33:45;24.37;;;9.67;;
4317;SDS011;2172;53.576;9.934;2023-11-19T07:36:14;23.90;;;8.60;;
4317;SDS011;2172;53.576;9.934;2023-11-19T07:38:42;25.90;;;8.37;;
4317;SDS011;2172;53.576;9.934;2023-11-19T07:41:09;32.67;;;8.93;;
4317;SDS011;2172;53.576;9.934;2023-11-19T07:43:38;22.63;;;8.47;;
4317;SDS011;2172;53.576;9.934;2023-11-19T07:46:10;42.10;;;10.00;;
4317;SDS011;2172;53.576;9.934;2023-11-19T07:48:38;38.67;;;8.60;;
4317;SDS011;2172;53.576;9.934;2023-11-19T07:51:07;26.87;;;10.37;;
4317;SDS011;2172;53.576;9.934;2023-11-19T07:53:36;31.43;;;8.50;;
4317;SDS011;2172;53.576;9.934;2023-11-19T07:56:04;31.20;;;9.10;;
4317;SDS011;2172;53.576;9.934;2023-11-19T07:58:32;23.17;;;9.13;;
4317;SDS011;2172;53.576;9.934;2023-11-19T08:01:00;31.57;;;10.70;;
4317;SDS011;2172;53.576;9.934;2023-11-19T08:03:28;35.20;;;9.73;;
4317;SDS011;2172;53.576;9.934;2023-11-19T08:05:55;34.80;;;10.53;;
4317;SDS011;2172;53.576;9.934;2023-11-19T08:08:23;23.93;;;9.07;;
4317;SDS011;2172;53.576;9.934;2023-11-19T08:10:52;30.70;;;9.23;;
4317;SDS011;2172;53.576;9.934;2023-11-19T08:13:22;29.57;;;10.10;;
4317;SDS011;2172;53.576;9.934;2023-11-19T08:15:49;31.10;;;10.80;;
4317;SDS011;2172;53.576;9.934;2023-11-19T08:18:17;30.13;;;7.77;;
4317;SDS011;2172;53.576;9.934;2023-11-19T08:20:44;39.40;;;8.90;;
4317;SDS011;2172;53.576;9.934;2023-11-19T08:23:17;24.43;;;9.03;;
4317;SDS011;2172;53.576;9.934;2023-11-19T08:25:45;29.80;;;8.60;;
4317;SDS011;2172;53.576;9.934;2023-11-19T08:28:14;27.40;;;7.80;;
4317;SDS011;2172;53.576;9.934;2023-11-19T08:30:42;22.20;;;8.03;;
4317;SDS011;2172;53.576;9.934;2023-11-19T08:33:10;32.00;;;9.40;;
4317;SDS011;2172;53.576;9.934;2023-11-19T08:35:37;26.30;;;8.90;;
4317;SDS011;2172;53.576;9.934;2023-11-19T08:38:05;28.40;;;7.67;;
4317;SDS011;2172;53.576;9.934;2023-11-19T08:40:32;43.57;;;8.33;;
4317;SDS011;2172;53.576;9.934;2023-11-19T08:43:00;25.13;;;8.80;;
4317;SDS011;2172;53.576;9.934;2023-11-19T08:45:29;36.20;;;10.20;;
4317;SDS011;2172;53.576;9.934;2023-11-19T08:47:57;32.70;;;9.40;;
4317;SDS011;2172;53.576;9.934;2023-11-19T08:50:24;26.40;;;7.90;;
4317;SDS011;2172;53.576;9.934;2023-11-19T08:52:52;37.03;;;9.90;;
4317;SDS011;2172;53.576;9.934;2023-11-19T08:55:20;26.53;;;8.97;;
4317;SDS011;2172;53.576;9.934;2023-11-19T08:57:47;37.83;;;7.47;;
4317;SDS011;2172;53.576;9.934;2023-11-19T09:00:15;30.10;;;8.30;;
4317;SDS011;2172;53.576;9.934;2023-11-19T09:02:44;30.57;;;9.20;;
4317;SDS011;2172;53.576;9.934;2023-11-19T09:05:12;30.90;;;8.50;;
4317;SDS011;2172;53.576;9.934;2023-11-19T09:07:39;27.80;;;8.27;;
4317;SDS011;2172;53.576;9.934;2023-11-19T09:10:07;40.33;;;10.40;;
4317;SDS011;2172;53.576;9.934;2023-11-19T09:12:35;26.47;;;8.60;;
4317;SDS011;2172;53.576;9.934;2023-11-19T09:15:03;25.10;;;7.37;;
4317;SDS011;2172;53.576;9.934;2023-11-19T09:17:31;28.43;;;9.60;;
4317;SDS011;2172;53.576;9.934;2023-11-19T09:20:01;26.37;;;9.00;;
4317;SDS011;2172;53.576;9.934;2023-11-19T09:22:29;31.23;;;9.40;;
4317;SDS011;2172;53.576;9.934;2023-11-19T09:24:56;24.73;;;7.70;;
4317;SDS011;2172;53.576;9.934;2023-11-19T09:27:25;31.07;;;7.73;;
4317;SDS011;2172;53.576;9.934;2023-11-19T09:29:53;26.30;;;7.00;;
4317;SDS011;2172;53.576;9.934;2023-11-19T09:32:22;28.00;;;7.80;;
4317;SDS011;2172;53.576;9.934;2023-11-19T09:34:50;32.23;;;9.30;;
4317;SDS011;2172;53.576;9.934;2023-11-19T09:37:19;19.57;;;6.40;;
4317;SDS011;2172;53.576;9.934;2023-11-19T09:39:47;18.97;;;7.33;;
4317;SDS011;2172;53.576;9.934;2023-11-19T09:42:14;26.40;;;7.60;;
4317;SDS011;2172;53.576;9.934;2023-11-19T09:44:43;31.13;;;7.73;;
4317;SDS011;2172;53.576;9.934;2023-11-19T09:47:11;36.77;;;8.27;;
4317;SDS011;2172;53.576;9.934;2023-11-19T09:49:38;37.87;;;9.30;;
4317;SDS011;2172;53.576;9.934;2023-11-19T09:52:06;25.70;;;7.50;;
4317;SDS011;2172;53.576;9.934;2023-11-19T09:54:35;30.83;;;8.30;;
4317;SDS011;2172;53.576;9.934;2023-11-19T09:57:03;25.23;;;7.60;;
4317;SDS011;2172;53.576;9.934;2023-11-19T09:59:32;25.90;;;8.70;;
4317;SDS011;2172;53.576;9.934;2023-11-19T10:02:00;26.33;;;7.60;;
4317;SDS011;2172;53.576;9.934;2023-11-19T10:04:29;29.00;;;7.90;;
4317;SDS011;2172;53.576;9.934;2023-11-19T10:06:57;23.53;;;7.60;;
4317;SDS011;2172;53.576;9.934;2023-11-19T10:09:24;20.87;;;6.93;;
4317;SDS011;2172;53.576;9.934;2023-11-19T10:11:53;28.50;;;8.07;;
4317;SDS011;2172;53.576;9.934;2023-11-19T10:14:21;35.40;;;7.77;;
4317;SDS011;2172;53.576;9.934;2023-11-19T10:16:50;36.30;;;8.40;;
4317;SDS011;2172;53.576;9.934;2023-11-19T10:19:20;28.80;;;7.23;;
4317;SDS011;2172;53.576;9.934;2023-11-19T10:21:48;29.50;;;8.13;;
4317;SDS011;2172;53.576;9.934;2023-11-19T10:24:16;32.90;;;8.47;;
4317;SDS011;2172;53.576;9.934;2023-11-19T10:26:43;32.33;;;8.10;;
4317;SDS011;2172;53.576;9.934;2023-11-19T10:29:13;28.63;;;8.57;;
4317;SDS011;2172;53.576;9.934;2023-11-19T10:31:41;28.60;;;8.77;;
4317;SDS011;2172;53.576;9.934;2023-11-19T10:34:24;26.67;;;8.67;;
4317;SDS011;2172;53.576;9.934;2023-11-19T10:36:52;34.57;;;10.17;;
4317;SDS011;2172;53.576;9.934;2023-11-19T10:39:20;32.17;;;8.70;;
4317;SDS011;2172;53.576;9.934;2023-11-19T10:41:49;38.87;;;8.07;;
4317;SDS011;2172;53.576;9.934;2023-11-19T10:44:33;27.83;;;7.60;;
4317;SDS011;2172;53.576;9.934;2023-11-19T10:47:05;29.60;;;6.53;;
4317;SDS011;2172;53.576;9.934;2023-11-19T10:49:33;29.40;;;7.87;;
4317;SDS011;2172;53.576;9.934;2023-11-19T10:52:01;27.40;;;8.00;;
4317;SDS011;2172;53.576;9.934;2023-11-19T10:54:29;34.07;;;8.90;;
4317;SDS011;2172;53.576;9.934;2023-11-19T10:56:58;30.33;;;7.30;;
4317;SDS011;2172;53.576;9.934;2023-11-19T10:59:26;37.97;;;8.70;;
4317;SDS011;2172;53.576;9.934;2023-11-19T11:01:59;32.07;;;8.43;;
4317;SDS011;2172;53.576;9.934;2023-11-19T11:04:31;30.07;;;7.80;;
4317;SDS011;2172;53.576;9.934;2023-11-19T11:07:02;25.03;;;6.50;;
4317;SDS011;2172;53.576;9.934;2023-11-19T11:09:30;37.77;;;7.70;;
4317;SDS011;2172;53.576;9.934;2023-11-19T11:11:58;33.00;;;7.83;;
4317;SDS011;2172;53.576;9.934;2023-11-19T11:14:26;35.50;;;8.90;;
4317;SDS011;2172;53.576;9.934;2023-11-19T11:16:54;28.40;;;7.90;;
4317;SDS011;2172;53.576;9.934;2023-11-19T11:19:24;22.40;;;7.30;;
4317;SDS011;2172;53.576;9.934;2023-11-19T11:21:53;27.60;;;7.07;;
4317;SDS011;2172;53.576;9.934;2023-11-19T11:24:34;42.83;;;9.27;;
4317;SDS011;2172;53.576;9.934;2023-11-19T11:27:28;37.33;;;8.57;;
4317;SDS011;2172;53.576;9.934;2023-11-19T11:30:07;27.57;;;8.00;;
4317;SDS011;2172;53.576;9.934;2023-11-19T11:32:50;23.53;;;6.77;;
4317;SDS011;2172;53.576;9.934;2023-11-19T11:35:27;19.33;;;7.33;;
4317;SDS011;2172;53.576;9.934;2023-11-19T11:38:00;24.20;;;6.70;;
4317;SDS011;2172;53.576;9.934;2023-11-19T11:40:28;43.97;;;9.83;;
4317;SDS011;2172;53.576;9.934;2023-11-19T11:42:56;23.70;;;7.47;;
4317;SDS011;2172;53.576;9.934;2023-11-19T11:45:43;31.10;;;7.87;;
4317;SDS011;2172;53.576;9.934;2023-11-19T11:48:11;37.83;;;8.23;;
4317;SDS011;2172;53.576;9.934;2023-11-19T11:50:52;30.63;;;8.50;;
4317;SDS011;2172;53.576;9.934;2023-11-19T11:53:24;33.50;;;7.93;;
4317;SDS011;2172;53.576;9.934;2023-11-19T11:55:53;25.80;;;7.33;;
4317;SDS011;2172;53.576;9.934;2023-11-19T11:58:34;30.20;;;8.17;;
4317;SDS011;2172;53.576;9.934;2023-11-19T12:01:04;29.50;;;8.20;;
4317;SDS011;2172;53.576;9.934;2023-11-19T12:03:32;32.37;;;7.87;;
4317;SDS011;2172;53.576;9.934;2023-11-19T12:06:02;25.60;;;6.93;;
4317;SDS011;2172;53.576;9.934;2023-11-19T12:08:29;30.43;;;7.53;;
4317;SDS011;2172;53.576;9.934;2023-11-19T12:10:58;27.40;;;6.90;;
4317;SDS011;2172;53.576;9.934;2023-11-19T12:13:29;32.57;;;6.97;;
4317;SDS011;2172;53.576;9.934;2023-11-19T12:16:13;22.47;;;6.87;;
4317;SDS011;2172;53.576;9.934;2023-11-19T12:18:41;28.17;;;6.73;;
4317;SDS011;2172;53.576;9.934;2023-11-19T12:21:10;24.83;;;5.80;;
4317;SDS011;2172;53.576;9.934;2023-11-19T12:23:44;27.07;;;8.13;;
4317;SDS011;2172;53.576;9.934;2023-11-19T12:29:00;21.20;;;5.30;;
4317;SDS011;2172;53.576;9.934;2023-11-19T12:31:29;23.60;;;6.20;;
4317;SDS011;2172;53.576;9.934;2023-11-19T12:33:57;37.50;;;9.20;;
4317;SDS011;2172;53.576;9.934;2023-11-19T12:36:26;27.60;;;7.83;;
4317;SDS011;2172;53.576;9.934;2023-11-19T12:38:54;32.33;;;8.77;;
4317;SDS011;2172;53.576;9.934;2023-11-19T12:41:21;26.30;;;7.50;;
4317;SDS011;2172;53.576;9.934;2023-11-19T12:43:49;23.87;;;6.90;;
4317;SDS011;2172;53.576;9.934;2023-11-19T12:46:17;23.67;;;6.30;;
4317;SDS011;2172;53.576;9.934;2023-11-19T12:48:46;22.97;;;6.97;;
4317;SDS011;2172;53.576;9.934;2023-11-19T12:51:13;31.90;;;6.87;;
4317;SDS011;2172;53.576;9.934;2023-11-19T12:53:48;27.03;;;7.70;;
4317;SDS011;2172;53.576;9.934;2023-11-19T12:56:19;29.80;;;8.23;;
4317;SDS011;2172;53.576;9.934;2023-11-19T12:58:47;29.93;;;8.77;;
4317;SDS011;2172;53.576;9.934;2023-11-19T13:01:16;29.47;;;8.00;;
4317;SDS011;2172;53.576;9.934;2023-11-19T13:03:44;29.03;;;7.27;;
4317;SDS011;2172;53.576;9.934;2023-11-19T13:06:14;36.40;;;8.57;;
4317;SDS011;2172;53.576;9.934;2023-11-19T13:08:42;26.20;;;6.70;;
4317;SDS011;2172;53.576;9.934;2023-11-19T13:11:12;27.43;;;7.43;;
4317;SDS011;2172;53.576;9.934;2023-11-19T13:13:54;27.93;;;7.23;;
4317;SDS011;2172;53.576;9.934;2023-11-19T13:16:21;29.70;;;7.67;;
4317;SDS011;2172;53.576;9.934;2023-11-19T13:18:49;28.63;;;7.80;;
4317;SDS011;2172;53.576;9.934;2023-11-19T13:21:17;21.93;;;5.90;;
4317;SDS011;2172;53.576;9.934;2023-11-19T13:23:44;27.70;;;7.10;;
4317;SDS011;2172;53.576;9.934;2023-11-19T13:26:13;26.90;;;7.13;;
4317;SDS011;2172;53.576;9.934;2023-11-19T13:28:41;30.10;;;7.40;;
4317;SDS011;2172;53.576;9.934;2023-11-19T13:31:08;35.77;;;8.87;;
4317;SDS011;2172;53.576;9.934;2023-11-19T13:33:37;25.20;;;7.20;;
4317;SDS011;2172;53.576;9.934;2023-11-19T13:36:04;37.03;;;7.50;;
4317;SDS011;2172;53.576;9.934;2023-11-19T13:38:33;28.73;;;6.77;;
4317;SDS011;2172;53.576;9.934;2023-11-19T13:41:01;28.50;;;6.63;;
4317;SDS011;2172;53.576;9.934;2023-11-19T13:43:31;31.17;;;8.03;;
4317;SDS011;2172;53.576;9.934;2023-11-19T13:45:58;25.80;;;7.77;;
4317;SDS011;2172;53.576;9.934;2023-11-19T13:48:26;29.53;;;10.00;;
4317;SDS011;2172;53.576;9.934;2023-11-19T13:50:54;37.60;;;9.23;;
4317;SDS011;2172;53.576;9.934;2023-11-19T13:53:21;31.70;;;6.60;;
4317;SDS011;2172;53.576;9.934;2023-11-19T13:55:49;37.10;;;8.40;;
4317;SDS011;2172;53.576;9.934;2023-11-19T13:58:16;20.30;;;7.03;;
4317;SDS011;2172;53.576;9.934;2023-11-19T14:00:45;21.97;;;6.93;;
4317;SDS011;2172;53.576;9.934;2023-11-19T14:03:13;28.33;;;11.43;;
4317;SDS011;2172;53.576;9.934;2023-11-19T14:05:40;27.00;;;6.90;;
4317;SDS011;2172;53.576;9.934;2023-11-19T14:08:08;29.30;;;8.00;;
4317;SDS011;2172;53.576;9.934;2023-11-19T14:10:37;30.57;;;7.57;;
4317;SDS011;2172;53.576;9.934;2023-11-19T14:13:05;21.40;;;7.13;;
4317;SDS011;2172;53.576;9.934;2023-11-19T14:15:33;21.30;;;6.60;;
4317;SDS011;2172;53.576;9.934;2023-11-19T14:18:02;29.73;;;7.83;;
4317;SDS011;2172;53.576;9.934;2023-11-19T14:20:29;26.63;;;6.90;;
4317;SDS011;2172;53.576;9.934;2023-11-19T14:22:58;27.33;;;6.70;;
4317;SDS011;2172;53.576;9.934;2023-11-19T14:25:25;34.63;;;6.63;;
4317;SDS011;2172;53.576;9.934;2023-11-19T14:27:53;25.90;;;7.40;;
4317;SDS011;2172;53.576;9.934;2023-11-19T14:30:20;25.50;;;6.90;;
4317;SDS011;2172;53.576;9.934;2023-11-19T14:32:48;21.90;;;6.27;;
4317;SDS011;2172;53.576;9.934;2023-11-19T14:35:17;25.03;;;6.67;;
4317;SDS011;2172;53.576;9.934;2023-11-19T14:37:45;28.43;;;6.10;;
4317;SDS011;2172;53.576;9.934;2023-11-19T14:40:13;26.27;;;7.70;;
4317;SDS011;2172;53.576;9.934;2023-11-19T14:42:40;28.77;;;6.20;;
4317;SDS011;2172;53.576;9.934;2023-11-19T14:45:08;15.77;;;6.80;;
4317;SDS011;2172;53.576;9.934;2023-11-19T14:47:37;22.97;;;5.87;;
4317;SDS011;2172;53.576;9.934;2023-11-19T14:50:05;36.97;;;7.37;;
4317;SDS011;2172;53.576;9.934;2023-11-19T14:52:35;24.57;;;6.73;;
4317;SDS011;2172;53.576;9.934;2023-11-19T14:55:03;26.87;;;7.67;;
4317;SDS011;2172;53.576;9.934;2023-11-19T14:57:31;24.30;;;8.33;;
4317;SDS011;2172;53.576;9.934;2023-11-19T15:00:01;32.27;;;8.00;;
4317;SDS011;2172;53.576;9.934;2023-11-19T15:02:38;21.40;;;4.80;;
4317;SDS011;2172;53.576;9.934;2023-11-19T15:05:07;9.70;;;2.43;;
4317;SDS011;2172;53.576;9.934;2023-11-19T15:07:37;12.23;;;3.83;;
4317;SDS011;2172;53.576;9.934;2023-11-19T15:10:05;5.20;;;1.93;;
4317;SDS011;2172;53.576;9.934;2023-11-19T15:12:35;9.43;;;2.63;;
4317;SDS011;2172;53.576;9.934;2023-11-19T15:15:06;6.50;;;1.73;;